sensor_id;sensor_type;location;lat;lon;timestamp;P1;durP1;ratioP1;P2;durP2;ratioP2
49962;SDS011;36180;57.678;11.910;2023-12-20T00:00:12;33.53;;;3.88;;
49962;SDS011;36180;57.678;11.910;2023-12-20T00:02:39;24.90;;;3.50;;
49962;SDS011;36180;57.678;11.910;2023-12-20T00:05:10;26.55;;;3.67;;
49962;SDS011;36180;57.678;11.910;2023-12-20T00:07:37;21.55;;;4.10;;
49962;SDS011;36180;57.678;11.910;2023-12-20T00:10:04;27.63;;;3.40;;
49962;SDS011;36180;57.678;11.910;2023-12-20T00:12:32;25.98;;;3.58;;
49962;SDS011;36180;57.678;11.910;2023-12-20T00:14:59;20.88;;;3.10;;
49962;SDS011;36180;57.678;11.910;2023-12-20T00:17:27;26.08;;;3.17;;
49962;SDS011;36180;57.678;11.910;2023-12-20T00:19:54;22.67;;;2.92;;
49962;SDS011;36180;57.678;11.910;2023-12-20T00:22:21;24.15;;;3.50;;
49962;SDS011;36180;57.678;11.910;2023-12-20T00:24:48;25.67;;;3.58;;
49962;SDS011;36180;57.678;11.910;2023-12-20T00:27:15;34.83;;;3.63;;
49962;SDS011;36180;57.678;11.910;2023-12-20T00:29:42;34.45;;;4.00;;
49962;SDS011;36180;57.678;11.910;2023-12-20T00:32:13;27.13;;;3.67;;
49962;SDS011;36180;57.678;11.910;2023-12-20T00:34:41;23.77;;;3.10;;
49962;SDS011;36180;57.678;11.910;2023-12-20T00:37:08;27.08;;;3.58;;
49962;SDS011;36180;57.678;11.910;2023-12-20T00:39:35;19.30;;;3.00;;
49962;SDS011;36180;57.678;11.910;2023-12-20T00:42:02;32.22;;;3.78;;
49962;SDS011;36180;57.678;11.910;2023-12-20T00:44:29;30.02;;;3.75;;
49962;SDS011;36180;57.678;11.910;2023-12-20T00:46:56;18.73;;;3.00;;
49962;SDS011;36180;57.678;11.910;2023-12-20T00:49:23;27.80;;;3.42;;
49962;SDS011;36180;57.678;11.910;2023-12-20T00:51:51;22.75;;;3.20;;
49962;SDS011;36180;57.678;11.910;2023-12-20T00:54:18;26.35;;;3.30;;
49962;SDS011;36180;57.678;11.910;2023-12-20T00:56:45;27.45;;;4.05;;
49962;SDS011;36180;57.678;11.910;2023-12-20T00:59:12;28.92;;;4.07;;
49962;SDS011;36180;57.678;11.910;2023-12-20T01:01:40;19.25;;;3.92;;
49962;SDS011;36180;57.678;11.910;2023-12-20T01:04:07;23.52;;;4.75;;
49962;SDS011;36180;57.678;11.910;2023-12-20T01:06:34;28.27;;;4.40;;
49962;SDS011;36180;57.678;11.910;2023-12-20T01:09:02;20.40;;;3.40;;
49962;SDS011;36180;57.678;11.910;2023-12-20T01:11:29;23.13;;;3.35;;
49962;SDS011;36180;57.678;11.910;2023-12-20T01:13:56;30.92;;;3.78;;
49962;SDS011;36180;57.678;11.910;2023-12-20T01:16:23;21.23;;;2.88;;
49962;SDS011;36180;57.678;11.910;2023-12-20T01:18:50;26.10;;;3.28;;
49962;SDS011;36180;57.678;11.910;2023-12-20T01:21:17;19.00;;;3.10;;
49962;SDS011;36180;57.678;11.910;2023-12-20T01:23:44;25.80;;;3.35;;
49962;SDS011;36180;57.678;11.910;2023-12-20T01:26:12;27.08;;;3.15;;
49962;SDS011;36180;57.678;11.910;2023-12-20T01:28:39;31.48;;;3.60;;
49962;SDS011;36180;57.678;11.910;2023-12-20T01:31:06;21.63;;;3.80;;
49962;SDS011;36180;57.678;11.910;2023-12-20T01:33:33;37.15;;;4.40;;
49962;SDS011;36180;57.678;11.910;2023-12-20T01:36:00;25.08;;;3.00;;
49962;SDS011;36180;57.678;11.910;2023-12-20T01:38:27;23.95;;;3.45;;
49962;SDS011;36180;57.678;11.910;2023-12-20T01:40:54;25.95;;;3.60;;
49962;SDS011;36180;57.678;11.910;2023-12-20T01:43:22;26.38;;;3.67;;
49962;SDS011;36180;57.678;11.910;2023-12-20T01:45:49;19.45;;;2.95;;
49962;SDS011;36180;57.678;11.910;2023-12-20T01:48:16;25.63;;;3.45;;
49962;SDS011;36180;57.678;11.910;2023-12-20T01:50:43;19.58;;;3.75;;
49962;SDS011;36180;57.678;11.910;2023-12-20T01:53:10;21.83;;;3.22;;
49962;SDS011;36180;57.678;11.910;2023-12-20T01:55:38;22.70;;;3.20;;
49962;SDS011;36180;57.678;11.910;2023-12-20T01:58:06;29.45;;;3.70;;
49962;SDS011;36180;57.678;11.910;2023-12-20T02:00:36;21.60;;;2.80;;
49962;SDS011;36180;57.678;11.910;2023-12-20T02:03:03;28.75;;;3.30;;
49962;SDS011;36180;57.678;11.910;2023-12-20T02:05:31;22.42;;;3.40;;
49962;SDS011;36180;57.678;11.910;2023-12-20T02:07:58;26.27;;;3.53;;
49962;SDS011;36180;57.678;11.910;2023-12-20T02:10:25;27.23;;;3.67;;
49962;SDS011;36180;57.678;11.910;2023-12-20T02:12:52;25.42;;;3.75;;
49962;SDS011;36180;57.678;11.910;2023-12-20T02:15:19;23.02;;;3.30;;
49962;SDS011;36180;57.678;11.910;2023-12-20T02:17:47;23.92;;;3.08;;
49962;SDS011;36180;57.678;11.910;2023-12-20T02:20:14;25.10;;;3.33;;
49962;SDS011;36180;57.678;11.910;2023-12-20T02:22:43;28.48;;;3.55;;
49962;SDS011;36180;57.678;11.910;2023-12-20T02:25:10;24.08;;;3.28;;
49962;SDS011;36180;57.678;11.910;2023-12-20T02:27:36;19.60;;;3.00;;
49962;SDS011;36180;57.678;11.910;2023-12-20T02:30:04;15.95;;;2.35;;
49962;SDS011;36180;57.678;11.910;2023-12-20T02:32:32;19.65;;;3.15;;
49962;SDS011;36180;57.678;11.910;2023-12-20T02:34:59;30.30;;;3.35;;
49962;SDS011;36180;57.678;11.910;2023-12-20T02:37:26;20.42;;;3.20;;
49962;SDS011;36180;57.678;11.910;2023-12-20T02:39:54;18.80;;;3.58;;
49962;SDS011;36180;57.678;11.910;2023-12-20T02:42:21;21.55;;;3.25;;
49962;SDS011;36180;57.678;11.910;2023-12-20T02:44:48;21.45;;;4.03;;
49962;SDS011;36180;57.678;11.910;2023-12-20T02:47:15;24.88;;;3.15;;
49962;SDS011;36180;57.678;11.910;2023-12-20T02:49:42;27.15;;;3.00;;
49962;SDS011;36180;57.678;11.910;2023-12-20T02:52:09;28.65;;;3.17;;
49962;SDS011;36180;57.678;11.910;2023-12-20T02:54:36;25.83;;;3.22;;
49962;SDS011;36180;57.678;11.910;2023-12-20T02:57:04;26.88;;;3.30;;
49962;SDS011;36180;57.678;11.910;2023-12-20T02:59:31;23.75;;;2.90;;
49962;SDS011;36180;57.678;11.910;2023-12-20T03:01:58;24.65;;;3.50;;
49962;SDS011;36180;57.678;11.910;2023-12-20T03:04:25;27.83;;;3.70;;
49962;SDS011;36180;57.678;11.910;2023-12-20T03:06:51;19.80;;;3.05;;
49962;SDS011;36180;57.678;11.910;2023-12-20T03:09:18;19.08;;;3.17;;
49962;SDS011;36180;57.678;11.910;2023-12-20T03:11:45;20.38;;;3.65;;
49962;SDS011;36180;57.678;11.910;2023-12-20T03:14:14;20.02;;;2.75;;
49962;SDS011;36180;57.678;11.910;2023-12-20T03:16:40;28.33;;;3.05;;
49962;SDS011;36180;57.678;11.910;2023-12-20T03:19:07;24.55;;;3.50;;
49962;SDS011;36180;57.678;11.910;2023-12-20T03:21:34;19.27;;;2.92;;
49962;SDS011;36180;57.678;11.910;2023-12-20T03:24:01;19.67;;;2.67;;
49962;SDS011;36180;57.678;11.910;2023-12-20T03:26:28;16.70;;;2.63;;
49962;SDS011;36180;57.678;11.910;2023-12-20T03:28:55;19.65;;;2.97;;
49962;SDS011;36180;57.678;11.910;2023-12-20T03:31:24;26.65;;;3.45;;
49962;SDS011;36180;57.678;11.910;2023-12-20T03:33:51;20.63;;;2.78;;
49962;SDS011;36180;57.678;11.910;2023-12-20T03:36:18;19.20;;;2.70;;
49962;SDS011;36180;57.678;11.910;2023-12-20T03:38:45;18.20;;;2.42;;
49962;SDS011;36180;57.678;11.910;2023-12-20T03:41:13;21.52;;;2.10;;
49962;SDS011;36180;57.678;11.910;2023-12-20T03:43:40;17.35;;;2.17;;
49962;SDS011;36180;57.678;11.910;2023-12-20T03:46:07;19.77;;;2.40;;
49962;SDS011;36180;57.678;11.910;2023-12-20T03:48:35;21.00;;;2.60;;
49962;SDS011;36180;57.678;11.910;2023-12-20T03:51:03;18.63;;;2.60;;
49962;SDS011;36180;57.678;11.910;2023-12-20T03:53:29;12.57;;;1.88;;
49962;SDS011;36180;57.678;11.910;2023-12-20T03:55:56;13.15;;;2.50;;
49962;SDS011;36180;57.678;11.910;2023-12-20T03:58:23;17.13;;;2.35;;
49962;SDS011;36180;57.678;11.910;2023-12-20T04:00:50;23.58;;;2.65;;
49962;SDS011;36180;57.678;11.910;2023-12-20T04:03:17;12.95;;;2.10;;
49962;SDS011;36180;57.678;11.910;2023-12-20T04:05:46;20.50;;;3.60;;
49962;SDS011;36180;57.678;11.910;2023-12-20T04:08:13;10.68;;;1.88;;
49962;SDS011;36180;57.678;11.910;2023-12-20T04:10:39;16.33;;;2.70;;
49962;SDS011;36180;57.678;11.910;2023-12-20T04:13:07;18.08;;;2.40;;
49962;SDS011;36180;57.678;11.910;2023-12-20T04:15:33;18.50;;;2.67;;
49962;SDS011;36180;57.678;11.910;2023-12-20T04:18:00;10.50;;;1.80;;
49962;SDS011;36180;57.678;11.910;2023-12-20T04:20:27;16.02;;;2.10;;
49962;SDS011;36180;57.678;11.910;2023-12-20T04:22:56;19.20;;;2.35;;
49962;SDS011;36180;57.678;11.910;2023-12-20T04:25:22;15.95;;;2.30;;
49962;SDS011;36180;57.678;11.910;2023-12-20T04:27:50;16.20;;;2.28;;
49962;SDS011;36180;57.678;11.910;2023-12-20T04:30:17;19.30;;;2.38;;
49962;SDS011;36180;57.678;11.910;2023-12-20T04:32:44;19.02;;;2.55;;
49962;SDS011;36180;57.678;11.910;2023-12-20T04:35:11;12.98;;;2.60;;
49962;SDS011;36180;57.678;11.910;2023-12-20T04:37:38;12.27;;;2.17;;
49962;SDS011;36180;57.678;11.910;2023-12-20T04:40:07;13.70;;;1.80;;
49962;SDS011;36180;57.678;11.910;2023-12-20T04:42:34;21.55;;;2.13;;
49962;SDS011;36180;57.678;11.910;2023-12-20T04:45:01;21.27;;;2.72;;
49962;SDS011;36180;57.678;11.910;2023-12-20T04:47:28;20.40;;;2.30;;
49962;SDS011;36180;57.678;11.910;2023-12-20T04:49:55;18.85;;;2.17;;
49962;SDS011;36180;57.678;11.910;2023-12-20T04:52:22;17.70;;;2.60;;
49962;SDS011;36180;57.678;11.910;2023-12-20T04:54:49;21.10;;;2.45;;
49962;SDS011;36180;57.678;11.910;2023-12-20T04:57:17;21.42;;;3.28;;
49962;SDS011;36180;57.678;11.910;2023-12-20T04:59:44;17.85;;;2.50;;
49962;SDS011;36180;57.678;11.910;2023-12-20T05:02:11;19.85;;;2.83;;
49962;SDS011;36180;57.678;11.910;2023-12-20T05:04:38;20.77;;;2.88;;
49962;SDS011;36180;57.678;11.910;2023-12-20T05:07:06;30.33;;;3.17;;
49962;SDS011;36180;57.678;11.910;2023-12-20T05:09:33;20.45;;;3.17;;
49962;SDS011;36180;57.678;11.910;2023-12-20T05:12:00;18.55;;;2.90;;
49962;SDS011;36180;57.678;11.910;2023-12-20T05:14:28;25.55;;;3.22;;
49962;SDS011;36180;57.678;11.910;2023-12-20T05:16:55;22.33;;;3.00;;
49962;SDS011;36180;57.678;11.910;2023-12-20T05:19:22;27.02;;;3.38;;
49962;SDS011;36180;57.678;11.910;2023-12-20T05:21:49;18.45;;;2.75;;
49962;SDS011;36180;57.678;11.910;2023-12-20T05:24:16;22.65;;;3.13;;
49962;SDS011;36180;57.678;11.910;2023-12-20T05:26:43;25.67;;;3.33;;
49962;SDS011;36180;57.678;11.910;2023-12-20T05:29:10;22.60;;;3.10;;
49962;SDS011;36180;57.678;11.910;2023-12-20T05:31:38;20.83;;;3.28;;
49962;SDS011;36180;57.678;11.910;2023-12-20T05:34:05;19.85;;;2.47;;
49962;SDS011;36180;57.678;11.910;2023-12-20T05:36:32;22.33;;;3.50;;
49962;SDS011;36180;57.678;11.910;2023-12-20T05:38:59;16.05;;;1.98;;
49962;SDS011;36180;57.678;11.910;2023-12-20T05:41:26;18.58;;;2.50;;
49962;SDS011;36180;57.678;11.910;2023-12-20T05:43:53;26.50;;;3.15;;
49962;SDS011;36180;57.678;11.910;2023-12-20T05:46:20;23.00;;;2.72;;
49962;SDS011;36180;57.678;11.910;2023-12-20T05:48:48;34.83;;;3.30;;
49962;SDS011;36180;57.678;11.910;2023-12-20T05:51:16;19.05;;;2.55;;
49962;SDS011;36180;57.678;11.910;2023-12-20T05:53:43;23.00;;;2.88;;
49962;SDS011;36180;57.678;11.910;2023-12-20T05:56:10;14.73;;;2.30;;
49962;SDS011;36180;57.678;11.910;2023-12-20T05:58:38;22.20;;;2.55;;
49962;SDS011;36180;57.678;11.910;2023-12-20T06:01:07;19.88;;;2.47;;
49962;SDS011;36180;57.678;11.910;2023-12-20T06:03:34;21.85;;;2.75;;
49962;SDS011;36180;57.678;11.910;2023-12-20T06:06:05;25.70;;;2.65;;
49962;SDS011;36180;57.678;11.910;2023-12-20T06:08:33;20.67;;;2.50;;
49962;SDS011;36180;57.678;11.910;2023-12-20T06:11:00;13.50;;;2.38;;
49962;SDS011;36180;57.678;11.910;2023-12-20T06:13:27;21.48;;;2.88;;
49962;SDS011;36180;57.678;11.910;2023-12-20T06:15:54;20.15;;;2.20;;
49962;SDS011;36180;57.678;11.910;2023-12-20T06:18:22;18.42;;;2.00;;
49962;SDS011;36180;57.678;11.910;2023-12-20T06:20:49;17.25;;;3.05;;
49962;SDS011;36180;57.678;11.910;2023-12-20T06:23:18;9.75;;;1.52;;
49962;SDS011;36180;57.678;11.910;2023-12-20T06:25:45;14.40;;;1.85;;
49962;SDS011;36180;57.678;11.910;2023-12-20T06:28:12;16.75;;;2.03;;
49962;SDS011;36180;57.678;11.910;2023-12-20T06:30:39;19.75;;;2.70;;
49962;SDS011;36180;57.678;11.910;2023-12-20T06:33:06;26.08;;;3.35;;
49962;SDS011;36180;57.678;11.910;2023-12-20T06:35:35;22.50;;;3.03;;
49962;SDS011;36180;57.678;11.910;2023-12-20T06:38:02;19.85;;;2.28;;
49962;SDS011;36180;57.678;11.910;2023-12-20T06:40:31;22.38;;;2.85;;
49962;SDS011;36180;57.678;11.910;2023-12-20T06:42:58;21.52;;;2.95;;
49962;SDS011;36180;57.678;11.910;2023-12-20T06:45:25;26.23;;;3.00;;
49962;SDS011;36180;57.678;11.910;2023-12-20T06:47:52;23.95;;;3.00;;
49962;SDS011;36180;57.678;11.910;2023-12-20T06:50:20;22.33;;;3.13;;
49962;SDS011;36180;57.678;11.910;2023-12-20T06:52:46;17.92;;;2.95;;
49962;SDS011;36180;57.678;11.910;2023-12-20T06:55:14;27.73;;;3.30;;
49962;SDS011;36180;57.678;11.910;2023-12-20T06:57:43;22.10;;;2.70;;
49962;SDS011;36180;57.678;11.910;2023-12-20T07:00:11;26.70;;;2.70;;
49962;SDS011;36180;57.678;11.910;2023-12-20T07:02:38;16.40;;;3.08;;
49962;SDS011;36180;57.678;11.910;2023-12-20T07:05:06;21.05;;;2.13;;
49962;SDS011;36180;57.678;11.910;2023-12-20T07:07:33;22.33;;;2.60;;
49962;SDS011;36180;57.678;11.910;2023-12-20T07:10:00;18.73;;;2.15;;
49962;SDS011;36180;57.678;11.910;2023-12-20T07:12:27;23.55;;;3.78;;
49962;SDS011;36180;57.678;11.910;2023-12-20T07:14:56;16.33;;;2.60;;
49962;SDS011;36180;57.678;11.910;2023-12-20T07:17:23;15.65;;;2.75;;
49962;SDS011;36180;57.678;11.910;2023-12-20T07:19:49;20.75;;;2.50;;
49962;SDS011;36180;57.678;11.910;2023-12-20T07:22:16;20.80;;;1.98;;
49962;SDS011;36180;57.678;11.910;2023-12-20T07:24:43;21.80;;;2.22;;
49962;SDS011;36180;57.678;11.910;2023-12-20T07:27:11;17.13;;;2.65;;
49962;SDS011;36180;57.678;11.910;2023-12-20T07:29:38;14.68;;;2.20;;
49962;SDS011;36180;57.678;11.910;2023-12-20T07:32:06;19.15;;;2.35;;
49962;SDS011;36180;57.678;11.910;2023-12-20T07:34:33;16.17;;;2.30;;
49962;SDS011;36180;57.678;11.910;2023-12-20T07:37:00;20.73;;;2.50;;
49962;SDS011;36180;57.678;11.910;2023-12-20T07:39:27;22.30;;;2.72;;
49962;SDS011;36180;57.678;11.910;2023-12-20T07:41:54;18.38;;;2.30;;
49962;SDS011;36180;57.678;11.910;2023-12-20T07:44:21;19.88;;;2.75;;
49962;SDS011;36180;57.678;11.910;2023-12-20T07:46:48;17.58;;;3.13;;
49962;SDS011;36180;57.678;11.910;2023-12-20T07:49:16;24.70;;;3.33;;
49962;SDS011;36180;57.678;11.910;2023-12-20T07:51:43;21.95;;;3.10;;
49962;SDS011;36180;57.678;11.910;2023-12-20T07:54:10;18.40;;;4.32;;
49962;SDS011;36180;57.678;11.910;2023-12-20T07:56:37;23.83;;;3.78;;
49962;SDS011;36180;57.678;11.910;2023-12-20T07:59:05;24.23;;;2.70;;
49962;SDS011;36180;57.678;11.910;2023-12-20T08:01:32;23.48;;;3.10;;
49962;SDS011;36180;57.678;11.910;2023-12-20T08:03:59;28.85;;;4.03;;
49962;SDS011;36180;57.678;11.910;2023-12-20T08:06:27;23.45;;;2.85;;
49962;SDS011;36180;57.678;11.910;2023-12-20T08:08:54;33.25;;;3.40;;
49962;SDS011;36180;57.678;11.910;2023-12-20T08:11:21;25.55;;;3.20;;
49962;SDS011;36180;57.678;11.910;2023-12-20T08:13:48;26.75;;;3.30;;
49962;SDS011;36180;57.678;11.910;2023-12-20T08:16:16;31.15;;;3.55;;
49962;SDS011;36180;57.678;11.910;2023-12-20T08:18:43;22.08;;;2.53;;
49962;SDS011;36180;57.678;11.910;2023-12-20T08:21:10;26.55;;;3.42;;
49962;SDS011;36180;57.678;11.910;2023-12-20T08:23:39;30.85;;;3.33;;
49962;SDS011;36180;57.678;11.910;2023-12-20T08:26:06;28.60;;;4.60;;
49962;SDS011;36180;57.678;11.910;2023-12-20T08:28:33;34.92;;;5.30;;
49962;SDS011;36180;57.678;11.910;2023-12-20T08:31:00;21.00;;;3.42;;
49962;SDS011;36180;57.678;11.910;2023-12-20T08:33:27;23.48;;;5.20;;
49962;SDS011;36180;57.678;11.910;2023-12-20T08:35:54;22.17;;;3.63;;
49962;SDS011;36180;57.678;11.910;2023-12-20T08:38:21;27.90;;;6.35;;
49962;SDS011;36180;57.678;11.910;2023-12-20T08:40:50;16.95;;;3.67;;
49962;SDS011;36180;57.678;11.910;2023-12-20T08:43:17;22.42;;;2.83;;
49962;SDS011;36180;57.678;11.910;2023-12-20T08:45:44;25.02;;;3.40;;
49962;SDS011;36180;57.678;11.910;2023-12-20T08:48:11;28.73;;;4.07;;
49962;SDS011;36180;57.678;11.910;2023-12-20T08:50:38;26.05;;;3.28;;
49962;SDS011;36180;57.678;11.910;2023-12-20T08:53:05;26.67;;;3.83;;
49962;SDS011;36180;57.678;11.910;2023-12-20T08:55:32;25.90;;;3.55;;
49962;SDS011;36180;57.678;11.910;2023-12-20T08:58:00;20.40;;;3.30;;
49962;SDS011;36180;57.678;11.910;2023-12-20T09:00:27;24.65;;;3.20;;
49962;SDS011;36180;57.678;11.910;2023-12-20T09:02:55;27.48;;;3.90;;
49962;SDS011;36180;57.678;11.910;2023-12-20T09:05:22;25.40;;;3.42;;
49962;SDS011;36180;57.678;11.910;2023-12-20T09:07:49;36.88;;;3.92;;
49962;SDS011;36180;57.678;11.910;2023-12-20T09:10:16;30.30;;;3.25;;
49962;SDS011;36180;57.678;11.910;2023-12-20T09:12:47;23.13;;;3.97;;
49962;SDS011;36180;57.678;11.910;2023-12-20T09:15:15;23.70;;;4.20;;
49962;SDS011;36180;57.678;11.910;2023-12-20T09:17:42;29.27;;;4.13;;
49962;SDS011;36180;57.678;11.910;2023-12-20T09:20:10;30.70;;;4.65;;
49962;SDS011;36180;57.678;11.910;2023-12-20T09:22:38;25.40;;;5.15;;
49962;SDS011;36180;57.678;11.910;2023-12-20T09:25:07;34.55;;;4.60;;
49962;SDS011;36180;57.678;11.910;2023-12-20T09:27:34;27.55;;;3.85;;
49962;SDS011;36180;57.678;11.910;2023-12-20T09:30:01;31.58;;;3.65;;
49962;SDS011;36180;57.678;11.910;2023-12-20T09:32:31;27.92;;;4.28;;
49962;SDS011;36180;57.678;11.910;2023-12-20T09:34:58;30.42;;;4.97;;
49962;SDS011;36180;57.678;11.910;2023-12-20T09:37:26;25.92;;;4.28;;
49962;SDS011;36180;57.678;11.910;2023-12-20T09:39:53;28.08;;;4.78;;
49962;SDS011;36180;57.678;11.910;2023-12-20T09:42:21;29.63;;;4.85;;
49962;SDS011;36180;57.678;11.910;2023-12-20T09:44:55;23.48;;;4.32;;
49962;SDS011;36180;57.678;11.910;2023-12-20T09:47:25;29.08;;;4.18;;
49962;SDS011;36180;57.678;11.910;2023-12-20T09:49:53;27.60;;;4.80;;
49962;SDS011;36180;57.678;11.910;2023-12-20T09:52:20;27.55;;;4.07;;
49962;SDS011;36180;57.678;11.910;2023-12-20T09:54:49;32.28;;;4.38;;
49962;SDS011;36180;57.678;11.910;2023-12-20T09:57:16;34.55;;;4.40;;
49962;SDS011;36180;57.678;11.910;2023-12-20T09:59:43;29.95;;;4.30;;
49962;SDS011;36180;57.678;11.910;2023-12-20T10:02:11;40.95;;;5.20;;
49962;SDS011;36180;57.678;11.910;2023-12-20T10:04:40;33.40;;;4.93;;
49962;SDS011;36180;57.678;11.910;2023-12-20T10:07:10;25.02;;;4.70;;
49962;SDS011;36180;57.678;11.910;2023-12-20T10:09:37;29.92;;;4.80;;
49962;SDS011;36180;57.678;11.910;2023-12-20T10:12:05;33.33;;;4.63;;
49962;SDS011;36180;57.678;11.910;2023-12-20T10:14:32;33.40;;;4.88;;
49962;SDS011;36180;57.678;11.910;2023-12-20T10:17:01;33.00;;;4.65;;
49962;SDS011;36180;57.678;11.910;2023-12-20T10:19:28;34.78;;;5.72;;
49962;SDS011;36180;57.678;11.910;2023-12-20T10:21:55;27.67;;;4.38;;
49962;SDS011;36180;57.678;11.910;2023-12-20T10:24:24;29.17;;;5.25;;
49962;SDS011;36180;57.678;11.910;2023-12-20T10:27:00;24.25;;;4.40;;
49962;SDS011;36180;57.678;11.910;2023-12-20T10:29:31;28.33;;;4.55;;
49962;SDS011;36180;57.678;11.910;2023-12-20T10:31:58;27.48;;;4.03;;
49962;SDS011;36180;57.678;11.910;2023-12-20T10:34:25;32.42;;;4.50;;
49962;SDS011;36180;57.678;11.910;2023-12-20T10:36:52;25.90;;;4.00;;
49962;SDS011;36180;57.678;11.910;2023-12-20T10:39:19;26.38;;;4.43;;
49962;SDS011;36180;57.678;11.910;2023-12-20T10:41:48;23.67;;;4.38;;
49962;SDS011;36180;57.678;11.910;2023-12-20T10:44:15;23.50;;;4.47;;
49962;SDS011;36180;57.678;11.910;2023-12-20T10:46:42;24.20;;;4.85;;
49962;SDS011;36180;57.678;11.910;2023-12-20T10:49:16;31.60;;;4.90;;
49962;SDS011;36180;57.678;11.910;2023-12-20T10:51:44;21.90;;;4.60;;
49962;SDS011;36180;57.678;11.910;2023-12-20T10:54:12;25.63;;;4.43;;
49962;SDS011;36180;57.678;11.910;2023-12-20T10:56:39;30.27;;;5.07;;
49962;SDS011;36180;57.678;11.910;2023-12-20T10:59:08;38.65;;;5.35;;
49962;SDS011;36180;57.678;11.910;2023-12-20T11:01:37;25.77;;;4.60;;
49962;SDS011;36180;57.678;11.910;2023-12-20T11:04:05;31.15;;;5.80;;
49962;SDS011;36180;57.678;11.910;2023-12-20T11:06:36;29.90;;;5.65;;
49962;SDS011;36180;57.678;11.910;2023-12-20T11:09:10;33.45;;;5.35;;
49962;SDS011;36180;57.678;11.910;2023-12-20T11:11:43;26.27;;;5.38;;
49962;SDS011;36180;57.678;11.910;2023-12-20T11:14:29;30.38;;;5.57;;
49962;SDS011;36180;57.678;11.910;2023-12-20T11:17:06;31.17;;;6.15;;
49962;SDS011;36180;57.678;11.910;2023-12-20T11:19:35;38.70;;;6.18;;
49962;SDS011;36180;57.678;11.910;2023-12-20T11:22:03;27.38;;;6.75;;
49962;SDS011;36180;57.678;11.910;2023-12-20T11:24:31;32.10;;;6.40;;
49962;SDS011;36180;57.678;11.910;2023-12-20T11:26:59;28.60;;;6.82;;
49962;SDS011;36180;57.678;11.910;2023-12-20T11:29:35;23.02;;;6.63;;
49962;SDS011;36180;57.678;11.910;2023-12-20T11:32:02;24.83;;;7.47;;
49962;SDS011;36180;57.678;11.910;2023-12-20T11:34:31;33.10;;;7.70;;
49962;SDS011;36180;57.678;11.910;2023-12-20T11:36:59;27.88;;;7.30;;
49962;SDS011;36180;57.678;11.910;2023-12-20T11:39:26;22.05;;;7.30;;
49962;SDS011;36180;57.678;11.910;2023-12-20T11:41:54;24.75;;;7.57;;
49962;SDS011;36180;57.678;11.910;2023-12-20T11:44:22;19.23;;;7.68;;
49962;SDS011;36180;57.678;11.910;2023-12-20T11:46:53;22.20;;;7.10;;
49962;SDS011;36180;57.678;11.910;2023-12-20T11:49:24;24.65;;;6.75;;
49962;SDS011;36180;57.678;11.910;2023-12-20T11:51:51;28.48;;;7.20;;
49962;SDS011;36180;57.678;11.910;2023-12-20T11:54:18;28.02;;;7.30;;
49962;SDS011;36180;57.678;11.910;2023-12-20T11:56:45;28.00;;;7.28;;
49962;SDS011;36180;57.678;11.910;2023-12-20T11:59:13;26.15;;;7.07;;
49962;SDS011;36180;57.678;11.910;2023-12-20T12:01:40;26.48;;;7.28;;
49962;SDS011;36180;57.678;11.910;2023-12-20T12:04:15;23.70;;;6.25;;
49962;SDS011;36180;57.678;11.910;2023-12-20T12:06:43;27.13;;;7.43;;
49962;SDS011;36180;57.678;11.910;2023-12-20T12:09:10;20.52;;;6.32;;
49962;SDS011;36180;57.678;11.910;2023-12-20T12:11:37;17.33;;;6.00;;
49962;SDS011;36180;57.678;11.910;2023-12-20T12:14:04;21.55;;;6.55;;
49962;SDS011;36180;57.678;11.910;2023-12-20T12:16:32;24.17;;;6.32;;
49962;SDS011;36180;57.678;11.910;2023-12-20T12:18:59;28.15;;;6.55;;
49962;SDS011;36180;57.678;11.910;2023-12-20T12:21:28;22.25;;;5.82;;
49962;SDS011;36180;57.678;11.910;2023-12-20T12:24:03;22.35;;;5.85;;
49962;SDS011;36180;57.678;11.910;2023-12-20T12:26:33;28.17;;;6.15;;
49962;SDS011;36180;57.678;11.910;2023-12-20T12:29:00;21.30;;;5.32;;
49962;SDS011;36180;57.678;11.910;2023-12-20T12:31:27;21.83;;;5.90;;
49962;SDS011;36180;57.678;11.910;2023-12-20T12:33:55;16.58;;;5.45;;
49962;SDS011;36180;57.678;11.910;2023-12-20T12:36:22;17.83;;;5.28;;
49962;SDS011;36180;57.678;11.910;2023-12-20T12:38:50;17.92;;;5.43;;
49962;SDS011;36180;57.678;11.910;2023-12-20T12:41:17;11.55;;;4.82;;
49962;SDS011;36180;57.678;11.910;2023-12-20T12:43:44;16.67;;;4.47;;
49962;SDS011;36180;57.678;11.910;2023-12-20T12:46:11;17.75;;;5.07;;
49962;SDS011;36180;57.678;11.910;2023-12-20T12:48:38;19.70;;;5.35;;
49962;SDS011;36180;57.678;11.910;2023-12-20T12:51:05;14.07;;;4.30;;
49962;SDS011;36180;57.678;11.910;2023-12-20T12:53:37;11.77;;;4.20;;
49962;SDS011;36180;57.678;11.910;2023-12-20T12:56:06;16.70;;;4.57;;
49962;SDS011;36180;57.678;11.910;2023-12-20T12:58:33;18.63;;;4.63;;
49962;SDS011;36180;57.678;11.910;2023-12-20T13:01:00;13.38;;;4.75;;
49962;SDS011;36180;57.678;11.910;2023-12-20T13:03:28;19.33;;;4.93;;
49962;SDS011;36180;57.678;11.910;2023-12-20T13:05:55;13.43;;;4.70;;
49962;SDS011;36180;57.678;11.910;2023-12-20T13:08:22;10.95;;;4.90;;
49962;SDS011;36180;57.678;11.910;2023-12-20T13:10:49;19.05;;;4.93;;
49962;SDS011;36180;57.678;11.910;2023-12-20T13:13:18;16.15;;;5.25;;
49962;SDS011;36180;57.678;11.910;2023-12-20T13:15:45;16.58;;;5.30;;
49962;SDS011;36180;57.678;11.910;2023-12-20T13:18:16;18.73;;;5.78;;
49962;SDS011;36180;57.678;11.910;2023-12-20T13:20:43;13.80;;;5.40;;
49962;SDS011;36180;57.678;11.910;2023-12-20T13:23:10;14.93;;;5.30;;
49962;SDS011;36180;57.678;11.910;2023-12-20T13:25:37;15.48;;;5.65;;
49962;SDS011;36180;57.678;11.910;2023-12-20T13:28:04;15.63;;;5.80;;
49962;SDS011;36180;57.678;11.910;2023-12-20T13:30:33;18.05;;;5.53;;
49962;SDS011;36180;57.678;11.910;2023-12-20T13:33:01;17.67;;;5.95;;
49962;SDS011;36180;57.678;11.910;2023-12-20T13:35:28;14.05;;;5.45;;
49962;SDS011;36180;57.678;11.910;2023-12-20T13:37:54;16.65;;;5.20;;
49962;SDS011;36180;57.678;11.910;2023-12-20T13:40:22;13.10;;;5.15;;
49962;SDS011;36180;57.678;11.910;2023-12-20T13:42:49;16.00;;;5.28;;
49962;SDS011;36180;57.678;11.910;2023-12-20T13:45:16;11.13;;;4.78;;
49962;SDS011;36180;57.678;11.910;2023-12-20T13:47:45;12.05;;;5.30;;
49962;SDS011;36180;57.678;11.910;2023-12-20T13:50:12;18.50;;;5.05;;
49962;SDS011;36180;57.678;11.910;2023-12-20T13:52:39;16.63;;;5.30;;
49962;SDS011;36180;57.678;11.910;2023-12-20T13:55:06;10.63;;;5.13;;
49962;SDS011;36180;57.678;11.910;2023-12-20T13:57:34;12.23;;;5.22;;
49962;SDS011;36180;57.678;11.910;2023-12-20T14:00:03;17.33;;;5.10;;
49962;SDS011;36180;57.678;11.910;2023-12-20T14:02:32;13.73;;;5.40;;
49962;SDS011;36180;57.678;11.910;2023-12-20T14:05:01;16.50;;;5.57;;
49962;SDS011;36180;57.678;11.910;2023-12-20T14:07:27;16.45;;;5.38;;
49962;SDS011;36180;57.678;11.910;2023-12-20T14:09:54;20.92;;;5.05;;
49962;SDS011;36180;57.678;11.910;2023-12-20T14:12:21;14.75;;;4.50;;
49962;SDS011;36180;57.678;11.910;2023-12-20T14:14:49;16.45;;;5.38;;
49962;SDS011;36180;57.678;11.910;2023-12-20T14:17:16;13.50;;;5.10;;
49962;SDS011;36180;57.678;11.910;2023-12-20T14:19:43;17.17;;;5.35;;
49962;SDS011;36180;57.678;11.910;2023-12-20T14:22:12;11.98;;;4.60;;